sensor_id;sensor_type;location;lat;lon;timestamp;P1;durP1;ratioP1;P2;durP2;ratioP2
21868;SDS011;11099;41.564;23.296;2023-09-19T00:02:16;6.50;;;5.90;;
21868;SDS011;11099;41.564;23.296;2023-09-19T00:04:44;6.47;;;5.88;;
21868;SDS011;11099;41.564;23.296;2023-09-19T00:07:10;6.57;;;5.82;;
21868;SDS011;11099;41.564;23.296;2023-09-19T00:09:35;7.78;;;5.60;;
21868;SDS011;11099;41.564;23.296;2023-09-19T00:12:06;5.95;;;5.45;;
21868;SDS011;11099;41.564;23.296;2023-09-19T00:14:34;6.88;;;5.05;;
21868;SDS011;11099;41.564;23.296;2023-09-19T00:17:03;7.15;;;6.40;;
21868;SDS011;11099;41.564;23.296;2023-09-19T00:19:36;8.98;;;6.20;;
21868;SDS011;11099;41.564;23.296;2023-09-19T00:22:03;8.07;;;6.07;;
21868;SDS011;11099;41.564;23.296;2023-09-19T00:24:29;6.85;;;5.55;;
21868;SDS011;11099;41.564;23.296;2023-09-19T00:26:56;6.70;;;5.63;;
21868;SDS011;11099;41.564;23.296;2023-09-19T00:29:24;6.32;;;5.72;;
21868;SDS011;11099;41.564;23.296;2023-09-19T00:31:54;6.82;;;5.82;;
21868;SDS011;11099;41.564;23.296;2023-09-19T00:34:24;6.75;;;6.15;;
21868;SDS011;11099;41.564;23.296;2023-09-19T00:36:50;8.60;;;6.57;;
21868;SDS011;11099;41.564;23.296;2023-09-19T00:39:19;9.65;;;7.30;;
21868;SDS011;11099;41.564;23.296;2023-09-19T00:41:45;7.07;;;6.53;;
21868;SDS011;11099;41.564;23.296;2023-09-19T00:44:11;7.85;;;7.00;;
21868;SDS011;11099;41.564;23.296;2023-09-19T00:46:37;9.27;;;6.82;;
21868;SDS011;11099;41.564;23.296;2023-09-19T00:49:03;7.88;;;5.60;;
21868;SDS011;11099;41.564;23.296;2023-09-19T00:51:29;6.50;;;5.90;;
21868;SDS011;11099;41.564;23.296;2023-09-19T00:53:55;6.63;;;6.00;;
21868;SDS011;11099;41.564;23.296;2023-09-19T00:56:21;6.40;;;5.80;;
21868;SDS011;11099;41.564;23.296;2023-09-19T00:58:48;7.07;;;6.47;;
21868;SDS011;11099;41.564;23.296;2023-09-19T01:01:14;6.40;;;5.80;;
21868;SDS011;11099;41.564;23.296;2023-09-19T01:03:40;7.68;;;6.70;;
21868;SDS011;11099;41.564;23.296;2023-09-19T01:06:07;6.97;;;6.30;;
21868;SDS011;11099;41.564;23.296;2023-09-19T01:08:34;10.68;;;6.55;;
21868;SDS011;11099;41.564;23.296;2023-09-19T01:11:12;10.30;;;7.10;;
21868;SDS011;11099;41.564;23.296;2023-09-19T01:13:52;12.15;;;7.43;;
21868;SDS011;11099;41.564;23.296;2023-09-19T01:16:48;8.02;;;7.15;;
21868;SDS011;11099;41.564;23.296;2023-09-19T01:22:00;9.93;;;7.60;;
21868;SDS011;11099;41.564;23.296;2023-09-19T01:30:13;9.77;;;8.38;;
21868;SDS011;11099;41.564;23.296;2023-09-19T01:32:40;9.18;;;7.70;;
21868;SDS011;11099;41.564;23.296;2023-09-19T01:35:07;10.38;;;7.40;;
21868;SDS011;11099;41.564;23.296;2023-09-19T01:37:37;7.78;;;7.07;;
21868;SDS011;11099;41.564;23.296;2023-09-19T01:40:06;11.07;;;7.95;;
21868;SDS011;11099;41.564;23.296;2023-09-19T01:42:59;10.95;;;7.63;;
21868;SDS011;11099;41.564;23.296;2023-09-19T01:48:13;9.93;;;7.75;;
21868;SDS011;11099;41.564;23.296;2023-09-19T01:51:08;8.65;;;7.80;;
21868;SDS011;11099;41.564;23.296;2023-09-19T01:53:37;9.10;;;7.82;;
21868;SDS011;11099;41.564;23.296;2023-09-19T01:56:12;7.30;;;6.60;;
21868;SDS011;11099;41.564;23.296;2023-09-19T01:58:48;7.60;;;6.82;;
21868;SDS011;11099;41.564;23.296;2023-09-19T02:01:17;7.90;;;7.10;;
21868;SDS011;11099;41.564;23.296;2023-09-19T02:03:50;9.00;;;6.70;;
21868;SDS011;11099;41.564;23.296;2023-09-19T02:06:16;8.07;;;7.38;;
21868;SDS011;11099;41.564;23.296;2023-09-19T02:08:43;10.45;;;7.45;;
21868;SDS011;11099;41.564;23.296;2023-09-19T02:11:13;7.97;;;7.20;;
21868;SDS011;11099;41.564;23.296;2023-09-19T02:13:39;7.47;;;6.60;;
21868;SDS011;11099;41.564;23.296;2023-09-19T02:16:06;7.95;;;7.15;;
21868;SDS011;11099;41.564;23.296;2023-09-19T02:18:32;8.98;;;7.85;;
21868;SDS011;11099;41.564;23.296;2023-09-19T02:21:00;9.15;;;7.47;;
21868;SDS011;11099;41.564;23.296;2023-09-19T02:23:26;9.15;;;8.15;;
21868;SDS011;11099;41.564;23.296;2023-09-19T02:26:01;8.98;;;8.10;;
21868;SDS011;11099;41.564;23.296;2023-09-19T02:28:28;10.57;;;8.73;;
21868;SDS011;11099;41.564;23.296;2023-09-19T02:30:57;12.35;;;8.50;;
21868;SDS011;11099;41.564;23.296;2023-09-19T02:33:23;9.52;;;8.30;;
21868;SDS011;11099;41.564;23.296;2023-09-19T02:35:49;8.90;;;8.10;;
21868;SDS011;11099;41.564;23.296;2023-09-19T02:38:15;10.85;;;7.85;;
21868;SDS011;11099;41.564;23.296;2023-09-19T02:40:46;11.95;;;8.07;;
21868;SDS011;11099;41.564;23.296;2023-09-19T02:43:11;10.15;;;9.20;;
21868;SDS011;11099;41.564;23.296;2023-09-19T02:45:37;8.75;;;7.95;;
21868;SDS011;11099;41.564;23.296;2023-09-19T02:48:03;9.60;;;8.13;;
21868;SDS011;11099;41.564;23.296;2023-09-19T02:50:29;9.82;;;8.00;;
21868;SDS011;11099;41.564;23.296;2023-09-19T02:52:55;8.98;;;8.18;;
21868;SDS011;11099;41.564;23.296;2023-09-19T02:55:20;8.82;;;8.02;;
21868;SDS011;11099;41.564;23.296;2023-09-19T02:57:47;9.15;;;8.20;;
21868;SDS011;11099;41.564;23.296;2023-09-19T03:00:14;12.15;;;8.48;;
21868;SDS011;11099;41.564;23.296;2023-09-19T03:02:41;9.43;;;8.02;;
21868;SDS011;11099;41.564;23.296;2023-09-19T03:05:07;9.15;;;8.32;;
21868;SDS011;11099;41.564;23.296;2023-09-19T03:07:33;9.15;;;8.23;;
21868;SDS011;11099;41.564;23.296;2023-09-19T03:09:59;9.40;;;8.48;;
21868;SDS011;11099;41.564;23.296;2023-09-19T03:12:25;8.88;;;7.93;;
21868;SDS011;11099;41.564;23.296;2023-09-19T03:14:52;8.77;;;7.90;;
21868;SDS011;11099;41.564;23.296;2023-09-19T03:17:17;8.80;;;7.95;;
21868;SDS011;11099;41.564;23.296;2023-09-19T03:19:45;8.30;;;7.50;;
21868;SDS011;11099;41.564;23.296;2023-09-19T03:22:11;8.63;;;7.90;;
21868;SDS011;11099;41.564;23.296;2023-09-19T03:24:37;8.27;;;6.97;;
21868;SDS011;11099;41.564;23.296;2023-09-19T03:27:03;9.18;;;7.28;;
21868;SDS011;11099;41.564;23.296;2023-09-19T03:29:29;8.68;;;7.28;;
21868;SDS011;11099;41.564;23.296;2023-09-19T03:31:55;8.82;;;7.82;;
21868;SDS011;11099;41.564;23.296;2023-09-19T03:34:20;8.00;;;7.28;;
21868;SDS011;11099;41.564;23.296;2023-09-19T03:36:46;7.90;;;7.10;;
21868;SDS011;11099;41.564;23.296;2023-09-19T03:39:12;8.52;;;7.70;;
21868;SDS011;11099;41.564;23.296;2023-09-19T03:41:40;9.30;;;8.35;;
21868;SDS011;11099;41.564;23.296;2023-09-19T03:44:06;8.55;;;7.70;;
21868;SDS011;11099;41.564;23.296;2023-09-19T03:46:32;10.48;;;7.30;;
21868;SDS011;11099;41.564;23.296;2023-09-19T03:48:59;9.95;;;7.70;;
21868;SDS011;11099;41.564;23.296;2023-09-19T03:51:25;8.60;;;7.53;;
21868;SDS011;11099;41.564;23.296;2023-09-19T03:53:50;8.45;;;7.57;;
21868;SDS011;11099;41.564;23.296;2023-09-19T03:56:16;8.60;;;7.90;;
21868;SDS011;11099;41.564;23.296;2023-09-19T03:58:41;8.43;;;7.35;;
21868;SDS011;11099;41.564;23.296;2023-09-19T04:01:07;10.75;;;7.63;;
21868;SDS011;11099;41.564;23.296;2023-09-19T04:03:36;9.07;;;7.90;;
21868;SDS011;11099;41.564;23.296;2023-09-19T04:06:12;9.15;;;8.13;;
21868;SDS011;11099;41.564;23.296;2023-09-19T04:08:41;10.48;;;7.25;;
21868;SDS011;11099;41.564;23.296;2023-09-19T04:11:08;12.07;;;7.30;;
21868;SDS011;11099;41.564;23.296;2023-09-19T04:13:33;10.73;;;7.80;;
21868;SDS011;11099;41.564;23.296;2023-09-19T04:15:59;10.48;;;8.68;;
21868;SDS011;11099;41.564;23.296;2023-09-19T04:18:24;9.23;;;8.15;;
21868;SDS011;11099;41.564;23.296;2023-09-19T04:20:51;8.65;;;7.85;;
21868;SDS011;11099;41.564;23.296;2023-09-19T04:23:16;12.70;;;8.70;;
21868;SDS011;11099;41.564;23.296;2023-09-19T04:25:45;8.70;;;7.90;;
21868;SDS011;11099;41.564;23.296;2023-09-19T04:28:10;10.23;;;8.30;;
21868;SDS011;11099;41.564;23.296;2023-09-19T04:30:39;10.25;;;8.60;;
21868;SDS011;11099;41.564;23.296;2023-09-19T04:33:07;9.65;;;8.70;;
21868;SDS011;11099;41.564;23.296;2023-09-19T04:35:33;9.63;;;8.73;;
21868;SDS011;11099;41.564;23.296;2023-09-19T04:38:00;9.00;;;8.10;;
21868;SDS011;11099;41.564;23.296;2023-09-19T04:40:25;16.73;;;9.23;;
21868;SDS011;11099;41.564;23.296;2023-09-19T04:42:55;11.23;;;9.45;;
21868;SDS011;11099;41.564;23.296;2023-09-19T04:45:22;11.50;;;8.52;;
21868;SDS011;11099;41.564;23.296;2023-09-19T04:47:48;9.77;;;8.73;;
21868;SDS011;11099;41.564;23.296;2023-09-19T04:50:13;9.68;;;8.77;;
21868;SDS011;11099;41.564;23.296;2023-09-19T04:52:40;10.88;;;8.43;;
21868;SDS011;11099;41.564;23.296;2023-09-19T04:55:16;9.43;;;7.70;;
21868;SDS011;11099;41.564;23.296;2023-09-19T04:57:49;9.35;;;7.25;;
21868;SDS011;11099;41.564;23.296;2023-09-19T05:00:16;10.88;;;7.80;;
21868;SDS011;11099;41.564;23.296;2023-09-19T05:02:44;10.20;;;7.65;;
21868;SDS011;11099;41.564;23.296;2023-09-19T05:05:10;7.47;;;6.82;;
21868;SDS011;11099;41.564;23.296;2023-09-19T05:07:37;8.88;;;6.50;;
21868;SDS011;11099;41.564;23.296;2023-09-19T05:10:04;6.65;;;6.05;;
21868;SDS011;11099;41.564;23.296;2023-09-19T05:12:34;7.18;;;6.50;;
21868;SDS011;11099;41.564;23.296;2023-09-19T05:15:03;6.85;;;5.97;;
21868;SDS011;11099;41.564;23.296;2023-09-19T05:17:30;6.70;;;6.10;;
21868;SDS011;11099;41.564;23.296;2023-09-19T05:19:56;8.55;;;6.18;;
21868;SDS011;11099;41.564;23.296;2023-09-19T05:22:23;7.47;;;6.68;;
21868;SDS011;11099;41.564;23.296;2023-09-19T05:24:50;10.73;;;7.07;;
21868;SDS011;11099;41.564;23.296;2023-09-19T05:27:16;8.95;;;6.93;;
21868;SDS011;11099;41.564;23.296;2023-09-19T05:29:43;11.05;;;7.63;;
21868;SDS011;11099;41.564;23.296;2023-09-19T05:32:09;9.23;;;7.47;;
21868;SDS011;11099;41.564;23.296;2023-09-19T05:34:36;12.80;;;8.20;;
21868;SDS011;11099;41.564;23.296;2023-09-19T05:37:02;12.70;;;8.98;;
21868;SDS011;11099;41.564;23.296;2023-09-19T05:39:28;7.97;;;7.18;;
21868;SDS011;11099;41.564;23.296;2023-09-19T05:41:53;9.55;;;7.50;;
21868;SDS011;11099;41.564;23.296;2023-09-19T05:44:20;11.00;;;7.00;;
21868;SDS011;11099;41.564;23.296;2023-09-19T05:46:45;8.63;;;7.25;;
21868;SDS011;11099;41.564;23.296;2023-09-19T05:49:13;8.20;;;7.18;;
21868;SDS011;11099;41.564;23.296;2023-09-19T05:51:39;8.27;;;6.80;;
21868;SDS011;11099;41.564;23.296;2023-09-19T05:54:04;7.80;;;7.03;;
21868;SDS011;11099;41.564;23.296;2023-09-19T05:56:30;8.95;;;6.60;;
21868;SDS011;11099;41.564;23.296;2023-09-19T05:58:56;7.70;;;6.88;;
21868;SDS011;11099;41.564;23.296;2023-09-19T06:01:21;8.57;;;6.47;;
21868;SDS011;11099;41.564;23.296;2023-09-19T06:03:47;8.25;;;7.15;;
21868;SDS011;11099;41.564;23.296;2023-09-19T06:06:13;12.93;;;6.72;;
21868;SDS011;11099;41.564;23.296;2023-09-19T06:08:39;6.97;;;6.28;;
21868;SDS011;11099;41.564;23.296;2023-09-19T06:11:05;8.20;;;6.25;;
21868;SDS011;11099;41.564;23.296;2023-09-19T06:15:59;9.32;;;6.65;;
21868;SDS011;11099;41.564;23.296;2023-09-19T06:18:30;7.43;;;6.60;;
21868;SDS011;11099;41.564;23.296;2023-09-19T06:20:59;8.10;;;6.40;;
21868;SDS011;11099;41.564;23.296;2023-09-19T06:23:25;10.77;;;7.43;;
21868;SDS011;11099;41.564;23.296;2023-09-19T06:25:54;7.15;;;5.75;;
21868;SDS011;11099;41.564;23.296;2023-09-19T06:28:19;9.90;;;7.18;;
21868;SDS011;11099;41.564;23.296;2023-09-19T06:30:49;9.30;;;6.70;;
21868;SDS011;11099;41.564;23.296;2023-09-19T06:33:15;10.93;;;6.68;;
21868;SDS011;11099;41.564;23.296;2023-09-19T06:35:42;8.02;;;6.32;;
21868;SDS011;11099;41.564;23.296;2023-09-19T06:38:12;6.85;;;6.25;;
21868;SDS011;11099;41.564;23.296;2023-09-19T06:40:38;10.20;;;6.55;;
21868;SDS011;11099;41.564;23.296;2023-09-19T06:43:04;7.65;;;6.85;;
21868;SDS011;11099;41.564;23.296;2023-09-19T06:45:30;9.73;;;7.00;;
21868;SDS011;11099;41.564;23.296;2023-09-19T06:47:57;10.52;;;6.65;;
21868;SDS011;11099;41.564;23.296;2023-09-19T06:50:23;6.70;;;6.00;;
21868;SDS011;11099;41.564;23.296;2023-09-19T06:52:49;7.10;;;5.90;;
21868;SDS011;11099;41.564;23.296;2023-09-19T06:55:19;10.38;;;6.65;;
21868;SDS011;11099;41.564;23.296;2023-09-19T06:57:46;8.15;;;6.38;;
21868;SDS011;11099;41.564;23.296;2023-09-19T07:00:12;6.40;;;5.80;;
21868;SDS011;11099;41.564;23.296;2023-09-19T07:02:43;8.18;;;6.60;;
21868;SDS011;11099;41.564;23.296;2023-09-19T07:05:20;6.90;;;6.20;;
21868;SDS011;11099;41.564;23.296;2023-09-19T07:07:46;7.15;;;5.82;;
21868;SDS011;11099;41.564;23.296;2023-09-19T07:10:12;7.40;;;6.80;;
21868;SDS011;11099;41.564;23.296;2023-09-19T07:12:39;6.80;;;6.15;;
21868;SDS011;11099;41.564;23.296;2023-09-19T07:15:06;8.70;;;6.15;;
21868;SDS011;11099;41.564;23.296;2023-09-19T07:17:32;9.60;;;6.72;;
21868;SDS011;11099;41.564;23.296;2023-09-19T07:19:58;11.95;;;7.32;;
21868;SDS011;11099;41.564;23.296;2023-09-19T07:22:24;9.02;;;6.85;;
21868;SDS011;11099;41.564;23.296;2023-09-19T07:24:51;7.22;;;6.53;;
21868;SDS011;11099;41.564;23.296;2023-09-19T07:27:17;8.27;;;6.57;;
21868;SDS011;11099;41.564;23.296;2023-09-19T07:29:42;7.38;;;6.40;;
21868;SDS011;11099;41.564;23.296;2023-09-19T07:32:08;7.40;;;6.70;;
21868;SDS011;11099;41.564;23.296;2023-09-19T07:34:35;9.88;;;6.88;;
21868;SDS011;11099;41.564;23.296;2023-09-19T07:37:00;7.28;;;6.55;;
21868;SDS011;11099;41.564;23.296;2023-09-19T07:39:27;7.28;;;6.55;;
21868;SDS011;11099;41.564;23.296;2023-09-19T07:41:53;8.90;;;6.72;;
21868;SDS011;11099;41.564;23.296;2023-09-19T07:44:19;7.07;;;5.53;;
21868;SDS011;11099;41.564;23.296;2023-09-19T07:46:45;7.97;;;6.30;;
21868;SDS011;11099;41.564;23.296;2023-09-19T07:49:10;7.22;;;6.53;;
21868;SDS011;11099;41.564;23.296;2023-09-19T07:51:36;7.30;;;6.60;;
21868;SDS011;11099;41.564;23.296;2023-09-19T07:54:02;6.32;;;5.82;;
21868;SDS011;11099;41.564;23.296;2023-09-19T07:56:27;8.20;;;6.22;;
21868;SDS011;11099;41.564;23.296;2023-09-19T07:58:53;9.73;;;5.85;;
21868;SDS011;11099;41.564;23.296;2023-09-19T08:01:18;6.32;;;5.72;;
21868;SDS011;11099;41.564;23.296;2023-09-19T08:03:44;6.53;;;5.85;;
21868;SDS011;11099;41.564;23.296;2023-09-19T08:06:10;8.32;;;6.05;;
21868;SDS011;11099;41.564;23.296;2023-09-19T08:08:36;7.38;;;6.43;;
21868;SDS011;11099;41.564;23.296;2023-09-19T08:11:03;7.40;;;6.50;;
21868;SDS011;11099;41.564;23.296;2023-09-19T08:13:36;8.73;;;6.65;;
21868;SDS011;11099;41.564;23.296;2023-09-19T08:16:05;7.43;;;6.70;;
21868;SDS011;11099;41.564;23.296;2023-09-19T08:18:31;9.05;;;6.72;;
21868;SDS011;11099;41.564;23.296;2023-09-19T08:20:56;7.32;;;6.72;;
21868;SDS011;11099;41.564;23.296;2023-09-19T08:23:23;8.70;;;6.68;;
21868;SDS011;11099;41.564;23.296;2023-09-19T08:25:49;8.93;;;6.40;;
21868;SDS011;11099;41.564;23.296;2023-09-19T08:28:15;7.15;;;6.35;;
21868;SDS011;11099;41.564;23.296;2023-09-19T08:30:44;11.73;;;7.40;;
21868;SDS011;11099;41.564;23.296;2023-09-19T08:33:10;8.15;;;7.40;;
21868;SDS011;11099;41.564;23.296;2023-09-19T08:35:36;8.07;;;6.47;;
21868;SDS011;11099;41.564;23.296;2023-09-19T08:38:04;9.27;;;7.30;;
21868;SDS011;11099;41.564;23.296;2023-09-19T08:40:31;7.72;;;7.03;;
21868;SDS011;11099;41.564;23.296;2023-09-19T08:42:58;8.63;;;7.00;;
21868;SDS011;11099;41.564;23.296;2023-09-19T08:45:25;9.35;;;7.75;;
21868;SDS011;11099;41.564;23.296;2023-09-19T08:50:30;7.60;;;6.90;;
21868;SDS011;11099;41.564;23.296;2023-09-19T08:53:00;8.77;;;7.40;;
21868;SDS011;11099;41.564;23.296;2023-09-19T08:55:27;9.70;;;7.05;;
21868;SDS011;11099;41.564;23.296;2023-09-19T08:58:06;8.25;;;7.45;;
21868;SDS011;11099;41.564;23.296;2023-09-19T09:00:35;8.35;;;7.55;;
21868;SDS011;11099;41.564;23.296;2023-09-19T09:03:02;7.63;;;6.78;;
21868;SDS011;11099;41.564;23.296;2023-09-19T09:05:31;8.18;;;7.47;;
21868;SDS011;11099;41.564;23.296;2023-09-19T09:08:00;8.55;;;6.78;;
21868;SDS011;11099;41.564;23.296;2023-09-19T09:10:27;8.85;;;6.90;;
21868;SDS011;11099;41.564;23.296;2023-09-19T09:12:53;7.95;;;6.75;;
21868;SDS011;11099;41.564;23.296;2023-09-19T09:15:23;8.43;;;6.47;;
21868;SDS011;11099;41.564;23.296;2023-09-19T09:17:49;7.78;;;6.97;;
21868;SDS011;11099;41.564;23.296;2023-09-19T09:20:20;7.13;;;6.43;;
21868;SDS011;11099;41.564;23.296;2023-09-19T09:22:55;7.50;;;6.60;;
21868;SDS011;11099;41.564;23.296;2023-09-19T09:28:20;10.43;;;7.45;;
21868;SDS011;11099;41.564;23.296;2023-09-19T09:30:50;7.40;;;6.80;;
21868;SDS011;11099;41.564;23.296;2023-09-19T09:33:33;7.90;;;6.53;;
21868;SDS011;11099;41.564;23.296;2023-09-19T09:35:59;8.18;;;6.93;;
21868;SDS011;11099;41.564;23.296;2023-09-19T09:38:42;7.45;;;6.60;;
21868;SDS011;11099;41.564;23.296;2023-09-19T09:41:09;7.00;;;6.30;;
21868;SDS011;11099;41.564;23.296;2023-09-19T09:43:40;7.35;;;6.72;;
21868;SDS011;11099;41.564;23.296;2023-09-19T09:46:16;10.60;;;7.18;;
21868;SDS011;11099;41.564;23.296;2023-09-19T09:48:46;7.57;;;6.75;;
21868;SDS011;11099;41.564;23.296;2023-09-19T09:51:36;7.32;;;6.63;;
21868;SDS011;11099;41.564;23.296;2023-09-19T09:54:13;8.53;;;6.33;;
21868;SDS011;11099;41.564;23.296;2023-09-19T09:56:56;8.85;;;6.13;;
21868;SDS011;11099;41.564;23.296;2023-09-19T09:59:51;7.68;;;6.43;;
21868;SDS011;11099;41.564;23.296;2023-09-19T10:02:25;8.55;;;6.10;;
21868;SDS011;11099;41.564;23.296;2023-09-19T10:04:58;9.88;;;6.07;;
21868;SDS011;11099;41.564;23.296;2023-09-19T10:07:32;7.55;;;6.25;;
21868;SDS011;11099;41.564;23.296;2023-09-19T10:10:01;8.48;;;6.60;;
21868;SDS011;11099;41.564;23.296;2023-09-19T10:12:38;7.38;;;6.78;;
21868;SDS011;11099;41.564;23.296;2023-09-19T10:15:17;8.90;;;6.63;;
21868;SDS011;11099;41.564;23.296;2023-09-19T10:17:47;6.90;;;6.30;;
21868;SDS011;11099;41.564;23.296;2023-09-19T10:20:13;8.55;;;6.15;;
21868;SDS011;11099;41.564;23.296;2023-09-19T10:23:00;7.82;;;7.13;;
21868;SDS011;11099;41.564;23.296;2023-09-19T10:25:29;7.28;;;6.60;;
21868;SDS011;11099;41.564;23.296;2023-09-19T10:28:00;6.55;;;5.95;;
21868;SDS011;11099;41.564;23.296;2023-09-19T10:30:29;10.75;;;7.43;;
21868;SDS011;11099;41.564;23.296;2023-09-19T10:33:01;6.70;;;6.20;;
21868;SDS011;11099;41.564;23.296;2023-09-19T10:35:28;7.55;;;6.85;;
21868;SDS011;11099;41.564;23.296;2023-09-19T10:37:56;6.95;;;6.22;;
21868;SDS011;11099;41.564;23.296;2023-09-19T10:40:24;10.20;;;6.70;;
21868;SDS011;11099;41.564;23.296;2023-09-19T10:43:02;7.70;;;6.28;;
21868;SDS011;11099;41.564;23.296;2023-09-19T10:45:35;8.13;;;6.50;;
21868;SDS011;11099;41.564;23.296;2023-09-19T10:48:03;7.28;;;6.57;;
21868;SDS011;11099;41.564;23.296;2023-09-19T10:50:31;7.28;;;6.53;;
21868;SDS011;11099;41.564;23.296;2023-09-19T10:53:14;8.02;;;7.15;;
21868;SDS011;11099;41.564;23.296;2023-09-19T10:55:42;7.32;;;6.72;;
21868;SDS011;11099;41.564;23.296;2023-09-19T10:58:24;7.38;;;6.60;;
21868;SDS011;11099;41.564;23.296;2023-09-19T11:00:57;6.95;;;6.28;;
21868;SDS011;11099;41.564;23.296;2023-09-19T11:03:43;8.30;;;6.25;;
21868;SDS011;11099;41.564;23.296;2023-09-19T11:06:12;7.50;;;6.13;;
21868;SDS011;11099;41.564;23.296;2023-09-19T11:08:58;6.97;;;6.28;;
21868;SDS011;11099;41.564;23.296;2023-09-19T11:26:04;6.38;;;5.65;;
21868;SDS011;11099;41.564;23.296;2023-09-19T11:30:50;7.00;;;5.82;;
21868;SDS011;11099;41.564;23.296;2023-09-19T11:43:53;7.10;;;6.35;;
21868;SDS011;11099;41.564;23.296;2023-09-19T11:46:20;6.18;;;5.50;;
21868;SDS011;11099;41.564;23.296;2023-09-19T11:48:49;6.43;;;5.82;;
21868;SDS011;11099;41.564;23.296;2023-09-19T11:51:19;9.15;;;5.95;;
21868;SDS011;11099;41.564;23.296;2023-09-19T11:53:58;6.30;;;5.70;;
21868;SDS011;11099;41.564;23.296;2023-09-19T11:56:27;8.30;;;6.20;;
21868;SDS011;11099;41.564;23.296;2023-09-19T11:58:54;10.98;;;6.18;;
21868;SDS011;11099;41.564;23.296;2023-09-19T12:01:25;6.13;;;5.40;;
21868;SDS011;11099;41.564;23.296;2023-09-19T12:03:54;6.15;;;5.63;;
21868;SDS011;11099;41.564;23.296;2023-09-19T12:06:23;6.32;;;5.75;;
21868;SDS011;11099;41.564;23.296;2023-09-19T12:08:49;8.13;;;5.80;;
21868;SDS011;11099;41.564;23.296;2023-09-19T12:11:16;5.90;;;5.50;;
21868;SDS011;11099;41.564;23.296;2023-09-19T12:13:43;6.60;;;5.95;;
21868;SDS011;11099;41.564;23.296;2023-09-19T12:16:20;7.43;;;5.53;;
21868;SDS011;11099;41.564;23.296;2023-09-19T12:18:47;10.20;;;5.50;;
21868;SDS011;11099;41.564;23.296;2023-09-19T12:21:30;8.23;;;5.40;;
21868;SDS011;11099;41.564;23.296;2023-09-19T12:24:03;6.75;;;5.63;;
21868;SDS011;11099;41.564;23.296;2023-09-19T12:26:39;7.55;;;5.80;;
21868;SDS011;11099;41.564;23.296;2023-09-19T12:29:13;8.15;;;5.57;;
21868;SDS011;11099;41.564;23.296;2023-09-19T12:31:52;7.50;;;5.63;;
21868;SDS011;11099;41.564;23.296;2023-09-19T12:34:31;5.88;;;5.38;;
21868;SDS011;11099;41.564;23.296;2023-09-19T12:37:03;6.38;;;5.47;;
21868;SDS011;11099;41.564;23.296;2023-09-19T12:39:46;7.60;;;5.03;;
21868;SDS011;11099;41.564;23.296;2023-09-19T12:42:16;7.55;;;5.85;;
21868;SDS011;11099;41.564;23.296;2023-09-19T12:44:46;5.93;;;5.43;;
21868;SDS011;11099;41.564;23.296;2023-09-19T12:47:22;6.28;;;5.78;;
21868;SDS011;11099;41.564;23.296;2023-09-19T12:50:11;6.20;;;5.53;;
21868;SDS011;11099;41.564;23.296;2023-09-19T12:52:39;6.05;;;5.47;;
21868;SDS011;11099;41.564;23.296;2023-09-19T12:55:06;6.07;;;5.27;;
21868;SDS011;11099;41.564;23.296;2023-09-19T12:57:33;5.43;;;4.97;;
21868;SDS011;11099;41.564;23.296;2023-09-19T13:00:02;6.18;;;5.60;;
21868;SDS011;11099;41.564;23.296;2023-09-19T13:02:31;5.57;;;5.13;;
21868;SDS011;11099;41.564;23.296;2023-09-19T13:04:57;5.40;;;5.00;;
21868;SDS011;11099;41.564;23.296;2023-09-19T13:07:41;7.27;;;5.57;;
21868;SDS011;11099;41.564;23.296;2023-09-19T13:10:09;5.95;;;5.43;;
21868;SDS011;11099;41.564;23.296;2023-09-19T13:12:35;6.07;;;5.57;;
21868;SDS011;11099;41.564;23.296;2023-09-19T13:15:13;5.70;;;5.30;;
21868;SDS011;11099;41.564;23.296;2023-09-19T13:17:48;5.30;;;4.78;;
21868;SDS011;11099;41.564;23.296;2023-09-19T13:20:26;5.97;;;5.47;;
21868;SDS011;11099;41.564;23.296;2023-09-19T13:22:53;7.60;;;5.20;;
21868;SDS011;11099;41.564;23.296;2023-09-19T13:25:23;5.07;;;4.68;;
21868;SDS011;11099;41.564;23.296;2023-09-19T13:27:50;5.80;;;5.30;;
21868;SDS011;11099;41.564;23.296;2023-09-19T13:30:17;5.82;;;5.32;;
21868;SDS011;11099;41.564;23.296;2023-09-19T13:32:44;5.32;;;4.82;;
21868;SDS011;11099;41.564;23.296;2023-09-19T13:35:12;5.85;;;5.35;;
21868;SDS011;11099;41.564;23.296;2023-09-19T13:37:39;7.90;;;5.10;;
21868;SDS011;11099;41.564;23.296;2023-09-19T13:40:13;7.32;;;5.07;;
21868;SDS011;11099;41.564;23.296;2023-09-19T13:42:40;5.97;;;5.38;;
21868;SDS011;11099;41.564;23.296;2023-09-19T13:45:06;5.07;;;4.65;;
21868;SDS011;11099;41.564;23.296;2023-09-19T13:47:34;5.95;;;5.05;;
21868;SDS011;11099;41.564;23.296;2023-09-19T13:52:29;8.18;;;5.97;;
21868;SDS011;11099;41.564;23.296;2023-09-19T13:54:56;5.82;;;5.28;;
21868;SDS011;11099;41.564;23.296;2023-09-19T13:57:23;6.07;;;5.47;;
21868;SDS011;11099;41.564;23.296;2023-09-19T13:59:49;6.03;;;5.43;;
21868;SDS011;11099;41.564;23.296;2023-09-19T14:02:14;6.13;;;5.53;;
21868;SDS011;11099;41.564;23.296;2023-09-19T14:04:43;5.13;;;4.70;;
21868;SDS011;11099;41.564;23.296;2023-09-19T14:07:09;8.57;;;6.00;;
21868;SDS011;11099;41.564;23.296;2023-09-19T14:09:36;6.72;;;6.15;;
21868;SDS011;11099;41.564;23.296;2023-09-19T14:12:02;6.45;;;5.80;;
21868;SDS011;11099;41.564;23.296;2023-09-19T14:14:28;6.05;;;5.55;;
21868;SDS011;11099;41.564;23.296;2023-09-19T14:16:53;7.03;;;5.32;;
21868;SDS011;11099;41.564;23.296;2023-09-19T14:19:20;6.78;;;5.60;;
21868;SDS011;11099;41.564;23.296;2023-09-19T14:21:45;7.35;;;5.75;;
21868;SDS011;11099;41.564;23.296;2023-09-19T14:24:16;6.75;;;5.65;;
21868;SDS011;11099;41.564;23.296;2023-09-19T14:26:42;9.43;;;5.43;;
21868;SDS011;11099;41.564;23.296;2023-09-19T14:29:08;5.32;;;4.90;;
21868;SDS011;11099;41.564;23.296;2023-09-19T14:31:36;5.50;;;5.10;;
21868;SDS011;11099;41.564;23.296;2023-09-19T14:34:03;6.28;;;5.40;;
21868;SDS011;11099;41.564;23.296;2023-09-19T14:36:29;6.82;;;5.65;;
21868;SDS011;11099;41.564;23.296;2023-09-19T14:38:55;5.68;;;5.15;;
21868;SDS011;11099;41.564;23.296;2023-09-19T14:41:22;6.15;;;5.32;;
21868;SDS011;11099;41.564;23.296;2023-09-19T14:43:50;9.00;;;6.05;;
21868;SDS011;11099;41.564;23.296;2023-09-19T14:46:20;10.15;;;5.70;;
21868;SDS011;11099;41.564;23.296;2023-09-19T14:48:46;6.22;;;5.45;;
21868;SDS011;11099;41.564;23.296;2023-09-19T14:51:16;6.65;;;6.15;;
21868;SDS011;11099;41.564;23.296;2023-09-19T14:53:42;8.23;;;6.30;;
21868;SDS011;11099;41.564;23.296;2023-09-19T14:56:08;8.35;;;6.68;;
21868;SDS011;11099;41.564;23.296;2023-09-19T14:58:34;9.23;;;7.05;;
21868;SDS011;11099;41.564;23.296;2023-09-19T15:01:04;7.35;;;6.45;;
21868;SDS011;11099;41.564;23.296;2023-09-19T15:03:34;7.78;;;6.53;;
21868;SDS011;11099;41.564;23.296;2023-09-19T15:06:03;7.50;;;6.78;;
21868;SDS011;11099;41.564;23.296;2023-09-19T15:08:31;7.63;;;6.85;;
21868;SDS011;11099;41.564;23.296;2023-09-19T15:13:29;7.97;;;6.68;;
21868;SDS011;11099;41.564;23.296;2023-09-19T15:16:05;10.18;;;6.43;;
21868;SDS011;11099;41.564;23.296;2023-09-19T15:18:38;9.20;;;6.95;;
21868;SDS011;11099;41.564;23.296;2023-09-19T15:21:07;9.60;;;6.70;;
21868;SDS011;11099;41.564;23.296;2023-09-19T15:23:33;8.05;;;6.75;;
21868;SDS011;11099;41.564;23.296;2023-09-19T15:26:00;10.32;;;7.28;;
21868;SDS011;11099;41.564;23.296;2023-09-19T15:28:29;9.85;;;7.10;;
21868;SDS011;11099;41.564;23.296;2023-09-19T15:31:02;7.75;;;6.90;;
21868;SDS011;11099;41.564;23.296;2023-09-19T15:33:32;10.13;;;6.68;;
21868;SDS011;11099;41.564;23.296;2023-09-19T15:36:05;8.38;;;6.55;;